Time;durP1;ratioP1;P1;durP2;ratioP2;P2;SDS_P1;SDS_P2;PMS_P1;PMS_P2;Temp;Humidity;BMP_temperature;BMP_pressure;BME280_temperature;BME280_humidity;BME280_pressure;Samples;Min_cycle;Max_cycle;Signal;HPM_P1;HPM_P2
2020/12/27 05:02:54;;;;;;;2.03;1.70;;;-2.80;88.30;;;;;;5161758;23;94253;-79
2020/12/27 05:05:20;;;;;;;2.60;1.95;;;-2.80;88.90;;;;;;4939315;28;92059;-79
2020/12/27 05:07:46;;;;;;;2.87;2.30;;;-2.90;89.00;;;;;;4950222;28;91342;-81
2020/12/27 05:10:12;;;;;;;1.73;1.63;;;-2.90;88.70;;;;;;4949021;28;92903;-82
2020/12/27 05:12:37;;;;;;;2.25;1.25;;;-2.90;89.10;;;;;;4948393;28;92937;-79
2020/12/27 05:15:07;;;;;;;2.30;1.50;;;-2.80;88.70;;;;;;4949604;28;92494;-77
2020/12/27 05:17:33;;;;;;;3.05;1.98;;;-2.80;89.30;;;;;;4948947;28;92298;-78
2020/12/27 05:20:07;;;;;;;2.20;1.98;;;-2.90;90.10;;;;;;4950012;28;92075;-79
2020/12/27 05:22:34;;;;;;;2.87;2.17;;;-2.90;90.00;;;;;;4950032;28;91953;-79
2020/12/27 05:25:02;;;;;;;3.10;1.90;;;-2.90;90.40;;;;;;4929573;28;91739;-79
2020/12/27 05:27:31;;;;;;;2.35;2.15;;;-3.00;90.50;;;;;;4946927;28;92114;-77
2020/12/27 05:30:00;;;;;;;2.60;1.63;;;-2.90;90.50;;;;;;4946988;28;92293;-80
2020/12/27 05:32:30;;;;;;;1.00;0.93;;;-3.00;90.40;;;;;;4947713;28;92046;-80
2020/12/27 05:34:55;;;;;;;1.58;1.20;;;-2.80;90.00;;;;;;4947929;28;91936;-79
2020/12/27 05:37:23;;;;;;;2.70;1.60;;;-2.90;89.20;;;;;;4944504;28;91920;-80
2020/12/27 05:39:49;;;;;;;4.13;1.83;;;-2.90;90.00;;;;;;4932787;28;94234;-79
2020/12/27 05:42:15;;;;;;;2.33;1.88;;;-2.90;90.20;;;;;;4939417;28;93854;-78
2020/12/27 05:44:40;;;;;;;1.15;1.02;;;-2.90;90.60;;;;;;4947932;28;91852;-78
2020/12/27 05:47:06;;;;;;;2.45;2.10;;;-2.90;90.10;;;;;;4934580;28;92074;-77
2020/12/27 05:49:33;;;;;;;1.35;1.20;;;-2.90;91.10;;;;;;4933861;28;93228;-79
2020/12/27 05:51:59;;;;;;;3.25;1.98;;;-2.90;90.60;;;;;;4947054;28;92961;-81
2020/12/27 05:54:33;;;;;;;1.65;1.42;;;-2.90;91.30;;;;;;4947010;28;91925;-81
2020/12/27 05:57:01;;;;;;;1.55;1.13;;;-2.90;91.30;;;;;;4948359;28;90777;-81
2020/12/27 05:59:30;;;;;;;1.70;1.60;;;-2.90;88.80;;;;;;4946155;28;92618;-80
2020/12/27 06:01:57;;;;;;;2.10;1.85;;;-2.80;88.40;;;;;;4946510;28;92187;-81
2020/12/27 06:04:43;;;;;;;4.70;2.45;;;-2.90;90.50;;;;;;4930166;28;92992;-81
2020/12/27 06:07:39;;;;;;;3.67;2.42;;;-2.90;92.30;;;;;;4910677;28;91514;-79
2020/12/27 06:10:09;;;;;;;6.13;2.50;;;-3.00;92.10;;;;;;4947710;28;91935;-81
2020/12/27 06:12:57;;;;;;;3.23;2.13;;;-3.10;92.20;;;;;;4941567;28;91661;-80
2020/12/27 06:15:30;;;;;;;2.30;1.80;;;-3.10;92.50;;;;;;4941599;28;91942;-81
2020/12/27 06:18:11;;;;;;;2.88;1.90;;;-3.10;92.50;;;;;;4945480;28;91950;-80
2020/12/27 06:20:42;;;;;;;3.67;1.98;;;-3.10;92.90;;;;;;4944534;28;91687;-80
2020/12/27 06:23:08;;;;;;;1.90;1.42;;;-3.20;93.00;;;;;;4946477;28;92016;-81
2020/12/27 06:25:35;;;;;;;3.25;1.90;;;-3.20;92.90;;;;;;4940887;28;91935;-81
2020/12/27 06:28:02;;;;;;;1.80;1.70;;;-3.20;92.90;;;;;;4927641;28;91277;-81
2020/12/27 06:30:40;;;;;;;3.00;1.97;;;-3.20;92.60;;;;;;4935753;28;94236;-81
2020/12/27 06:33:14;;;;;;;2.83;1.50;;;-3.20;92.10;;;;;;4936480;28;93299;-80
2020/12/27 06:35:45;;;;;;;3.17;1.63;;;-3.20;91.00;;;;;;4937057;28;92097;-81
2020/12/27 06:38:22;;;;;;;1.60;1.48;;;-3.10;90.40;;;;;;4947578;28;91735;-81
2020/12/27 06:40:58;;;;;;;2.63;1.30;;;-3.10;90.20;;;;;;4946891;28;92011;-82
2020/12/27 06:43:24;;;;;;;2.08;1.50;;;-3.00;90.00;;;;;;4947228;28;92838;-82
2020/12/27 06:45:51;;;;;;;2.87;1.50;;;-3.00;88.40;;;;;;4947449;28;91463;-81
2020/12/27 06:48:31;;;;;;;2.55;1.70;;;-2.90;88.30;;;;;;4940619;28;91146;-83
2020/12/27 06:50:57;;;;;;;1.13;1.02;;;-2.90;87.60;;;;;;4940906;28;92054;-81
2020/12/27 06:53:40;;;;;;;0.90;0.90;;;-2.80;87.50;;;;;;4931075;28;92469;-83
2020/12/27 06:56:05;;;;;;;1.65;1.50;;;-2.80;87.80;;;;;;4941366;28;92795;-81
2020/12/27 06:58:31;;;;;;;1.08;1.00;;;-2.80;88.00;;;;;;4936065;28;91835;-81
2020/12/27 07:01:13;;;;;;;2.00;1.77;;;-2.80;87.10;;;;;;4940417;28;93239;-81
2020/12/27 07:03:40;;;;;;;3.33;2.30;;;-2.70;90.40;;;;;;4936427;28;91736;-82
2020/12/27 07:06:24;;;;;;;4.60;2.42;;;-2.90;91.20;;;;;;4939977;28;92058;-81
2020/12/27 07:08:50;;;;;;;5.38;1.88;;;-3.00;92.20;;;;;;4913705;28;91276;-83
2020/12/27 07:11:18;;;;;;;4.77;3.47;;;-3.20;93.50;;;;;;4946363;28;92849;-84
2020/12/27 07:13:46;;;;;;;4.22;2.55;;;-3.20;93.80;;;;;;4953620;28;93422;-84
2020/12/27 07:16:17;;;;;;;4.32;2.67;;;-3.30;94.90;;;;;;4955372;28;91253;-84
2020/12/27 07:18:49;;;;;;;6.72;3.45;;;-3.40;95.50;;;;;;4947583;28;91769;-81
2020/12/27 07:21:21;;;;;;;3.33;1.88;;;-3.50;96.60;;;;;;4936806;28;93731;-82
2020/12/27 07:23:54;;;;;;;3.60;2.40;;;-3.50;96.90;;;;;;4945983;28;92083;-83
2020/12/27 07:26:24;;;;;;;4.55;2.55;;;-3.50;97.00;;;;;;4944184;28;92002;-84
2020/12/27 07:28:55;;;;;;;4.47;4.07;;;-3.40;96.40;;;;;;4945028;28;91575;-84
2020/12/27 07:31:22;;;;;;;3.50;2.75;;;-3.30;96.60;;;;;;4944965;28;91931;-84
2020/12/27 07:33:48;;;;;;;3.95;3.35;;;-3.40;96.80;;;;;;4945523;28;92070;-84
2020/12/27 07:36:14;;;;;;;5.65;2.60;;;-3.20;96.40;;;;;;4947644;28;91933;-84
2020/12/27 07:38:41;;;;;;;2.85;1.75;;;-3.20;95.50;;;;;;4949282;28;91155;-86
2020/12/27 07:41:09;;;;;;;1.58;1.05;;;-3.20;95.10;;;;;;4948764;28;93294;-85
2020/12/27 07:43:37;;;;;;;6.10;1.10;;;-3.00;93.60;;;;;;4947007;28;93053;-85
2020/12/27 07:46:07;;;;;;;2.53;1.77;;;-3.00;92.90;;;;;;4946290;28;92187;-85
2020/12/27 07:48:39;;;;;;;3.42;2.03;;;-2.80;92.20;;;;;;4943501;28;92299;-85
2020/12/27 07:51:19;;;;;;;4.57;2.22;;;-2.80;93.40;;;;;;4920249;28;92853;-86
2020/12/27 07:53:52;;;;;;;2.25;1.80;;;-2.70;93.10;;;;;;4938058;28;92192;-86
2020/12/27 07:56:19;;;;;;;3.67;2.13;;;-2.60;93.00;;;;;;4921988;28;92257;-83
2020/12/27 07:58:49;;;;;;;2.60;1.98;;;-2.60;92.70;;;;;;4945621;28;92428;-83
2020/12/27 08:01:21;;;;;;;4.60;2.92;;;-2.60;92.10;;;;;;4943750;28;92039;-84
2020/12/27 08:03:51;;;;;;;4.72;2.63;;;-2.50;92.40;;;;;;4944870;28;91526;-84
2020/12/27 08:06:17;;;;;;;5.32;2.55;;;-2.40;92.30;;;;;;4938420;28;91831;-83
2020/12/27 08:08:44;;;;;;;5.50;2.60;;;-2.40;92.00;;;;;;4940763;28;91557;-83
2020/12/27 08:11:23;;;;;;;4.03;2.17;;;-2.30;91.50;;;;;;4937984;28;93116;-84
2020/12/27 08:13:52;;;;;;;3.47;2.30;;;-2.30;91.60;;;;;;4938521;28;92058;-83
2020/12/27 08:16:18;;;;;;;4.20;2.28;;;-2.30;91.50;;;;;;4939357;28;91194;-82
2020/12/27 08:18:43;;;;;;;6.90;3.72;;;-2.30;92.40;;;;;;4924132;28;91353;-84
2020/12/27 08:21:09;;;;;;;6.60;3.45;;;-2.20;92.90;;;;;;4945001;28;91554;-83
2020/12/27 08:23:35;;;;;;;4.03;2.60;;;-2.10;92.40;;;;;;4941413;28;92109;-83
2020/12/27 08:26:01;;;;;;;5.22;3.00;;;-2.00;92.40;;;;;;4938822;28;91866;-82
2020/12/27 08:28:26;;;;;;;3.47;2.85;;;-1.80;91.60;;;;;;4920360;28;91569;-82
2020/12/27 08:30:52;;;;;;;3.28;2.00;;;-1.60;90.20;;;;;;4937148;28;91829;-83
2020/12/27 08:33:19;;;;;;;5.10;3.42;;;-1.50;86.40;;;;;;4939541;28;91962;-79
2020/12/27 08:35:47;;;;;;;4.28;2.75;;;-1.50;86.80;;;;;;4939621;28;92902;-81
2020/12/27 08:38:22;;;;;;;3.30;2.50;;;-1.50;85.70;;;;;;4933410;28;92247;-79
2020/12/27 08:41:05;;;;;;;6.80;2.90;;;-1.30;86.20;;;;;;4915439;28;93445;-79
2020/12/27 08:43:53;;;;;;;4.43;2.47;;;-0.90;83.90;;;;;;4932395;28;92306;-80
2020/12/27 08:46:22;;;;;;;4.75;3.78;;;-0.50;85.60;;;;;;4905152;28;92106;-81
2020/12/27 08:48:56;;;;;;;4.88;2.88;;;-0.60;81.90;;;;;;4936729;28;92053;-84
2020/12/27 08:51:25;;;;;;;5.65;4.20;;;0.20;84.30;;;;;;4928742;28;92948;-83
2020/12/27 08:53:51;;;;;;;5.47;3.85;;;;;;;;;;4934689;28;91231;-83
2020/12/27 08:56:18;;;;;;;3.50;2.42;;;0.10;78.00;;;;;;4935715;28;91891;-83
2020/12/27 08:58:54;;;;;;;5.53;3.17;;;0.10;78.60;;;;;;4923837;28;92223;-86
2020/12/27 09:01:22;;;;;;;4.05;3.75;;;0.40;77.00;;;;;;4931219;28;93336;-83
2020/12/27 09:03:48;;;;;;;3.53;2.63;;;0.40;77.50;;;;;;4935874;28;92836;-80
2020/12/27 09:06:14;;;;;;;5.85;2.50;;;0.60;77.60;;;;;;4938255;28;92102;-80
2020/12/27 09:08:40;;;;;;;4.60;3.17;;;0.70;75.60;;;;;;4934989;28;92540;-80
2020/12/27 09:11:06;;;;;;;7.63;3.40;;;0.90;75.30;;;;;;4933729;28;92916;-80
2020/12/27 09:13:37;;;;;;;5.85;3.10;;;1.10;74.20;;;;;;4936436;28;92304;-78
2020/12/27 09:16:03;;;;;;;10.43;4.93;;;1.00;74.70;;;;;;4932455;28;92208;-80
2020/12/27 09:18:31;;;;;;;4.55;3.85;;;1.20;72.70;;;;;;4934116;28;91368;-78
2020/12/27 09:21:07;;;;;;;5.45;4.38;;;1.80;76.80;;;;;;4933865;28;92430;-80
2020/12/27 09:23:34;;;;;;;4.57;2.60;;;1.50;71.40;;;;;;4928110;28;92233;-80
2020/12/27 09:26:08;;;;;;;5.82;3.90;;;2.00;73.10;;;;;;5512062;23;94479;-81
2020/12/27 09:28:37;;;;;;;4.45;3.22;;;1.60;70.30;;;;;;4919837;28;92158;-79
2020/12/27 09:31:08;;;;;;;6.10;3.88;;;2.00;76.40;;;;;;4921209;28;93226;-80
2020/12/27 09:33:36;;;;;;;4.80;3.03;;;1.60;70.70;;;;;;4921721;28;91901;-80
2020/12/27 09:36:05;;;;;;;3.30;2.03;;;1.50;69.60;;;;;;4922628;28;91885;-79
2020/12/27 09:38:39;;;;;;;4.80;2.42;;;1.30;71.50;;;;;;4907683;28;92019;-79
2020/12/27 09:41:17;;;;;;;5.20;3.15;;;1.80;75.10;;;;;;4913116;28;92764;-79
2020/12/27 09:44:02;;;;;;;4.28;2.50;;;1.20;71.10;;;;;;4921767;28;92597;-82
2020/12/27 09:46:41;;;;;;;3.40;3.20;;;0.90;74.40;;;;;;4923269;28;92104;-80
2020/12/27 09:49:28;;;;;;;6.68;2.13;;;1.40;72.30;;;;;;4921276;28;92128;-81
2020/12/27 09:52:07;;;;;;;8.60;4.30;;;1.50;75.70;;;;;;4917938;28;92938;-79
2020/12/27 09:54:35;;;;;;;4.35;2.70;;;1.40;73.30;;;;;;4920212;28;93107;-81
2020/12/27 09:57:18;;;;;;;4.05;2.70;;;1.50;74.10;;;;;;4920891;28;92064;-79
2020/12/27 09:59:47;;;;;;;5.28;2.83;;;1.70;74.10;;;;;;4920848;28;92283;-79
2020/12/27 10:02:13;;;;;;;4.20;3.38;;;1.90;75.40;;;;;;4922059;28;92298;-80
2020/12/27 10:04:38;;;;;;;4.50;3.03;;;1.50;74.50;;;;;;4906628;28;92471;-80
2020/12/27 10:07:05;;;;;;;5.28;2.83;;;1.40;74.20;;;;;;4923264;28;91773;-80
2020/12/27 10:09:31;;;;;;;4.10;2.60;;;1.50;73.40;;;;;;4922722;28;90928;-79
2020/12/27 10:11:57;;;;;;;5.82;2.72;;;1.30;73.30;;;;;;4927481;28;93154;-81
2020/12/27 10:14:23;;;;;;;4.70;3.25;;;1.30;73.70;;;;;;4926514;28;92532;-81
2020/12/27 10:16:49;;;;;;;4.70;2.97;;;1.30;75.00;;;;;;5228541;23;95173;-78
2020/12/27 10:24:28;;;;;;;6.07;3.13;;;1.40;75.40;;;;;;5467998;23;94107;-80
2020/12/27 10:26:54;;;;;;;6.32;4.25;;;1.50;75.00;;;;;;4937779;28;92063;-82
2020/12/27 10:29:20;;;;;;;5.78;4.22;;;1.40;75.40;;;;;;4942748;28;91930;-79
2020/12/27 10:31:53;;;;;;;6.40;4.20;;;1.10;75.80;;;;;;4943134;28;92329;-79
2020/12/27 10:34:19;;;;;;;10.90;4.45;;;1.30;81.60;;;;;;4944030;28;91968;-81
2020/12/27 10:36:52;;;;;;;6.88;2.92;;;1.30;76.20;;;;;;4945818;28;92002;-79
2020/12/27 10:39:18;;;;;;;7.25;3.05;;;1.20;75.00;;;;;;4944882;28;91816;-78
2020/12/27 10:41:45;;;;;;;4.18;2.88;;;1.30;73.00;;;;;;4940897;28;93202;-77
2020/12/27 10:44:12;;;;;;;6.97;4.05;;;1.70;73.30;;;;;;4943935;28;93909;-79
2020/12/27 10:46:38;;;;;;;4.03;2.60;;;1.60;71.60;;;;;;4940953;28;92051;-79
2020/12/27 10:49:04;;;;;;;7.32;3.45;;;1.60;72.30;;;;;;4943452;28;92069;-78
2020/12/27 10:51:40;;;;;;;5.07;2.70;;;1.70;71.10;;;;;;4939833;28;92171;-76
2020/12/27 10:54:07;;;;;;;4.15;2.67;;;1.70;70.60;;;;;;4939449;28;92221;-79
2020/12/27 10:56:33;;;;;;;6.88;3.50;;;2.00;71.40;;;;;;4940585;28;91865;-78
2020/12/27 10:59:00;;;;;;;4.03;2.38;;;1.90;71.80;;;;;;4942125;28;91347;-78
2020/12/27 11:01:26;;;;;;;5.40;2.90;;;2.10;69.50;;;;;;4949774;28;92289;-78
2020/12/27 11:03:52;;;;;;;5.78;4.25;;;2.60;69.60;;;;;;4925298;28;94901;-77
2020/12/27 11:06:17;;;;;;;6.00;2.75;;;2.40;69.60;;;;;;4942395;28;93014;-79
2020/12/27 11:08:43;;;;;;;5.93;3.05;;;2.80;69.80;;;;;;4947728;28;91984;-77
2020/12/27 11:11:09;;;;;;;5.03;3.83;;;2.80;66.90;;;;;;4941081;28;92418;-77
2020/12/27 11:13:35;;;;;;;5.53;2.33;;;3.00;66.70;;;;;;4948601;28;91739;-79
2020/12/27 11:16:01;;;;;;;7.85;3.95;;;3.10;67.00;;;;;;4936836;28;91889;-76
2020/12/27 11:18:27;;;;;;;4.90;3.47;;;3.50;66.40;;;;;;4927148;28;92100;-79
2020/12/27 11:20:52;;;;;;;8.52;4.53;;;3.80;65.30;;;;;;4943125;28;92328;-79
2020/12/27 11:23:18;;;;;;;5.03;3.55;;;3.90;64.20;;;;;;4947208;28;91292;-79
2020/12/27 11:25:44;;;;;;;9.43;5.65;;;4.20;64.70;;;;;;4941392;28;91842;-79
2020/12/27 11:28:09;;;;;;;7.05;3.92;;;4.30;64.70;;;;;;4942914;28;91950;-80
2020/12/27 11:30:35;;;;;;;8.50;4.05;;;4.50;65.00;;;;;;4940593;28;93438;-77
2020/12/27 11:33:01;;;;;;;6.25;3.42;;;4.80;65.30;;;;;;4940595;28;93807;-79
2020/12/27 11:35:27;;;;;;;6.18;4.80;;;5.50;64.60;;;;;;4938983;28;91899;-77
2020/12/27 11:37:53;;;;;;;4.80;3.65;;;5.10;64.90;;;;;;4933878;28;91961;-77
2020/12/27 11:40:22;;;;;;;5.75;5.25;;;5.50;63.80;;;;;;4939759;28;92666;-78
2020/12/27 11:42:48;;;;;;;5.10;4.60;;;5.70;63.30;;;;;;4941849;28;92006;-78
2020/12/27 11:45:13;;;;;;;5.85;4.35;;;5.50;62.70;;;;;;4942374;28;93192;-79
2020/12/27 11:47:39;;;;;;;6.13;4.72;;;5.50;62.10;;;;;;4937327;28;91177;-79
2020/12/27 11:50:06;;;;;;;9.23;5.18;;;5.50;62.60;;;;;;4940792;28;93079;-78
2020/12/27 11:52:32;;;;;;;6.95;5.40;;;5.80;62.90;;;;;;4938956;28;91935;-79
2020/12/27 11:54:58;;;;;;;7.45;5.72;;;6.00;62.40;;;;;;4940351;28;93015;-78
2020/12/27 11:57:23;;;;;;;7.03;4.00;;;5.70;62.60;;;;;;4936827;28;92313;-78
2020/12/27 11:59:49;;;;;;;6.53;4.32;;;5.80;63.10;;;;;;4935771;28;92728;-81
2020/12/27 12:02:15;;;;;;;5.75;4.93;;;5.70;62.00;;;;;;4940034;28;93307;-80
2020/12/27 12:04:40;;;;;;;6.43;3.60;;;6.00;62.50;;;;;;4947205;28;92572;-80
2020/12/27 12:07:06;;;;;;;6.10;3.70;;;6.10;62.90;;;;;;4936323;28;92438;-79
2020/12/27 12:09:32;;;;;;;5.10;4.65;;;6.10;60.70;;;;;;4939712;28;92170;-80
2020/12/27 12:11:58;;;;;;;6.72;3.67;;;6.00;61.00;;;;;;4941884;28;91836;-80
2020/12/27 12:14:24;;;;;;;8.05;4.85;;;5.90;60.70;;;;;;4943077;28;91903;-79
2020/12/27 12:16:52;;;;;;;4.70;3.95;;;6.20;61.50;;;;;;4937705;28;91458;-79
2020/12/27 12:19:18;;;;;;;5.75;5.00;;;6.10;61.40;;;;;;4941711;28;94206;-79
2020/12/27 12:21:43;;;;;;;8.32;5.35;;;6.00;61.00;;;;;;4940112;28;94140;-79
2020/12/27 12:24:09;;;;;;;5.82;5.03;;;6.20;61.20;;;;;;4942569;28;92022;-79
2020/12/27 12:26:36;;;;;;;7.05;4.25;;;6.00;61.40;;;;;;4937384;28;92098;-80
2020/12/27 12:29:02;;;;;;;6.35;5.20;;;;;;;;;;4941440;28;92563;-77
2020/12/27 12:31:28;;;;;;;5.65;4.13;;;2.60;58.90;;;;;;4938180;28;92225;-78
2020/12/27 12:33:54;;;;;;;4.10;3.38;;;5.90;61.50;;;;;;4936295;28;91945;-83
2020/12/27 12:36:22;;;;;;;5.75;5.20;;;5.40;61.10;;;;;;4940927;28;91392;-79
2020/12/27 12:38:48;;;;;;;7.60;5.80;;;5.70;61.10;;;;;;4937019;28;91933;-78
2020/12/27 12:41:15;;;;;;;5.85;5.13;;;6.20;62.40;;;;;;4939001;28;92526;-80
2020/12/27 12:43:43;;;;;;;5.28;4.57;;;5.00;61.90;;;;;;4944182;28;93059;-78
2020/12/27 12:46:13;;;;;;;6.68;5.03;;;5.00;62.90;;;;;;4941863;28;91725;-78
2020/12/27 12:48:40;;;;;;;4.88;3.13;;;4.90;62.70;;;;;;4945659;28;92122;-82
2020/12/27 12:51:09;;;;;;;3.22;2.70;;;4.70;64.10;;;;;;4941619;28;92262;-83
2020/12/27 12:53:35;;;;;;;5.32;3.70;;;;;;;;;;4946733;28;92040;-79
2020/12/27 12:56:02;;;;;;;4.40;4.00;;;3.70;66.60;;;;;;4944242;28;92013;-80
2020/12/27 12:58:28;;;;;;;5.13;3.92;;;3.70;67.60;;;;;;4923540;28;94023;-76
2020/12/27 13:00:54;;;;;;;6.32;4.88;;;3.60;67.60;;;;;;4944494;28;92833;-80
2020/12/27 13:03:20;;;;;;;7.53;4.70;;;3.50;68.30;;;;;;4939160;28;93258;-80
2020/12/27 13:05:45;;;;;;;9.00;5.35;;;3.70;68.40;;;;;;4931294;28;91986;-80
2020/12/27 13:08:11;;;;;;;7.35;5.40;;;3.40;68.70;;;;;;4935243;28;93614;-79
2020/12/27 13:10:38;;;;;;;8.25;5.45;;;3.30;69.20;;;;;;4939943;28;93479;-79
2020/12/27 13:13:04;;;;;;;7.72;4.43;;;3.40;69.50;;;;;;4920033;28;92304;-78
2020/12/27 13:15:30;;;;;;;10.70;6.75;;;3.00;70.00;;;;;;4937331;28;91594;-78
2020/12/27 13:17:56;;;;;;;6.35;3.67;;;3.10;70.30;;;;;;4936982;28;93141;-79
2020/12/27 13:20:22;;;;;;;4.63;4.03;;;3.00;69.40;;;;;;4942357;28;91800;-79
2020/12/27 13:22:48;;;;;;;4.72;3.60;;;2.90;70.20;;;;;;4944052;28;92046;-79
2020/12/27 13:25:14;;;;;;;4.20;2.90;;;2.90;70.60;;;;;;4938972;28;91359;-79
2020/12/27 13:27:44;;;;;;;4.35;3.90;;;2.70;70.60;;;;;;4942469;28;92088;-79
2020/12/27 13:30:12;;;;;;;5.80;4.18;;;2.80;71.30;;;;;;4941625;28;91852;-79
2020/12/27 13:32:38;;;;;;;5.00;4.57;;;;;;;;;;4943707;28;92983;-78
2020/12/27 13:35:05;;;;;;;5.28;4.47;;;2.80;71.10;;;;;;4941281;28;92017;-78
2020/12/27 13:37:30;;;;;;;5.35;4.50;;;2.50;70.90;;;;;;4941506;28;93799;-78
2020/12/27 13:39:56;;;;;;;6.00;4.15;;;2.70;71.50;;;;;;4944250;28;92425;-79
2020/12/27 13:42:22;;;;;;;4.43;3.95;;;;;;;;;;4922691;28;91630;-79
2020/12/27 13:44:49;;;;;;;5.95;4.30;;;;;;;;;;4942268;28;91768;-79
2020/12/27 13:47:15;;;;;;;5.32;4.82;;;;;;;;;;4938592;28;92540;-78
2020/12/27 13:49:41;;;;;;;7.78;5.18;;;2.70;71.70;;;;;;4941415;28;92562;-78
2020/12/27 13:52:07;;;;;;;5.28;4.63;;;2.60;72.40;;;;;;4922530;28;92038;-79
2020/12/27 13:54:32;;;;;;;8.25;4.57;;;2.30;73.20;;;;;;4943121;28;92003;-78
2020/12/27 13:56:58;;;;;;;5.68;4.63;;;2.20;73.00;;;;;;4937509;28;92619;-79
2020/12/27 13:59:24;;;;;;;12.20;5.65;;;1.90;73.20;;;;;;4944819;28;92808;-78
2020/12/27 14:01:50;;;;;;;6.68;5.20;;;2.00;74.90;;;;;;4944079;28;92061;-79
2020/12/27 14:04:16;;;;;;;5.95;4.93;;;1.90;73.30;;;;;;4937087;28;92160;-78
2020/12/27 14:06:43;;;;;;;7.20;5.25;;;1.90;73.60;;;;;;4942287;28;93163;-78
2020/12/27 14:09:09;;;;;;;8.75;5.43;;;2.40;74.10;;;;;;4935755;28;92124;-78
2020/12/27 14:11:35;;;;;;;7.18;4.90;;;1.80;75.60;;;;;;4938121;28;92124;-78
2020/12/27 14:14:02;;;;;;;6.78;4.13;;;1.80;75.60;;;;;;4942806;28;91269;-79
2020/12/27 14:16:27;;;;;;;6.18;4.00;;;1.80;76.70;;;;;;4934258;28;92598;-79
2020/12/27 17:46:08;;;;;;;16.83;10.32;;;1.10;85.00;;;;;;1210158;23;93744;-79
2020/12/27 17:48:33;;;;;;;16.40;10.02;;;1.10;85.70;;;;;;4910531;28;92923;-79
2020/12/27 17:51:02;;;;;;;18.80;11.25;;;1.00;85.80;;;;;;4906781;28;92375;-76
2020/12/27 17:53:27;;;;;;;51.63;22.05;;;1.00;85.70;;;;;;4910886;28;91964;-79
2020/12/27 17:55:53;;;;;;;16.88;9.70;;;0.90;87.20;;;;;;4917235;28;92377;-78
2020/12/27 17:58:19;;;;;;;23.77;12.68;;;0.90;87.20;;;;;;4918215;28;92172;-76
2020/12/27 18:00:44;;;;;;;15.48;10.45;;;0.50;88.50;;;;;;4923597;28;92075;-77
2020/12/27 18:03:10;;;;;;;15.30;9.40;;;0.90;90.00;;;;;;4922414;28;91159;-79
2020/12/27 18:05:36;;;;;;;12.43;9.30;;;0.80;89.00;;;;;;4927356;28;91951;-79
2020/12/27 18:08:01;;;;;;;13.98;9.90;;;0.80;88.90;;;;;;4920535;28;92087;-78
2020/12/27 18:10:27;;;;;;;16.38;11.13;;;0.80;88.20;;;;;;4901876;28;92831;-78
2020/12/27 18:12:53;;;;;;;17.88;8.98;;;0.90;88.60;;;;;;4898108;28;92031;-78
2020/12/27 18:15:20;;;;;;;15.43;10.15;;;;;;;;;;4899987;28;92658;-78
2020/12/27 18:17:46;;;;;;;12.00;9.77;;;1.10;87.00;;;;;;4899042;28;92111;-78
2020/12/27 18:20:12;;;;;;;15.68;8.95;;;1.00;86.40;;;;;;4901051;28;91577;-76
2020/12/27 18:22:39;;;;;;;12.35;8.05;;;1.20;86.10;;;;;;4897429;28;92262;-78
2020/12/27 18:27:41;;;;;;;11.35;7.10;;;1.00;86.40;;;;;;5281383;23;94113;-83
2020/12/27 18:30:07;;;;;;;22.00;10.57;;;0.70;89.40;;;;;;4925026;28;92104;-85
2020/12/27 18:32:33;;;;;;;17.20;8.50;;;;;;;;;;4921882;28;91978;-84
2020/12/27 18:35:01;;;;;;;14.40;8.95;;;;;;;;;;4914513;28;94674;-83
2020/12/27 18:37:28;;;;;;;14.48;8.07;;;0.50;91.80;;;;;;4924925;28;93948;-83
2020/12/27 18:39:54;;;;;;;25.67;11.40;;;0.50;92.70;;;;;;4928466;28;91373;-85
2020/12/27 18:42:22;;;;;;;11.00;7.28;;;0.40;91.60;;;;;;4927586;28;92210;-83
2020/12/27 18:44:50;;;;;;;8.65;5.78;;;;;;;;;;4903462;28;95662;-85
2020/12/27 18:47:17;;;;;;;9.32;5.30;;;0.60;92.70;;;;;;4927113;28;91597;-84
2020/12/27 18:49:45;;;;;;;6.15;4.05;;;0.60;93.80;;;;;;4927628;28;92028;-85
2020/12/27 18:52:12;;;;;;;14.35;6.78;;;0.60;93.00;;;;;;4928803;28;91661;-84
2020/12/27 18:54:37;;;;;;;15.77;8.23;;;0.60;93.00;;;;;;4939043;28;91864;-85
2020/12/27 18:57:03;;;;;;;13.05;7.38;;;0.70;92.50;;;;;;4919100;28;96254;-84
2020/12/27 18:59:30;;;;;;;15.23;9.15;;;0.80;93.60;;;;;;4909778;28;93049;-83
2020/12/27 19:01:57;;;;;;;12.95;6.75;;;0.90;93.70;;;;;;4928704;28;91805;-84
2020/12/27 19:04:24;;;;;;;9.85;6.70;;;1.10;92.20;;;;;;4926561;28;92908;-84
2020/12/27 19:06:51;;;;;;;10.43;7.63;;;1.20;91.60;;;;;;4927232;28;92885;-85
2020/12/27 19:09:17;;;;;;;9.90;6.85;;;;;;;;;;4929801;28;92056;-86
2020/12/27 19:11:44;;;;;;;9.07;6.10;;;;;;;;;;4925375;28;92053;-85
2020/12/27 19:14:11;;;;;;;8.15;5.22;;;1.40;91.40;;;;;;4925955;28;92792;-85
2020/12/27 19:16:39;;;;;;;10.68;7.18;;;1.60;91.30;;;;;;4916292;28;93792;-86
2020/12/27 19:19:06;;;;;;;7.05;6.10;;;1.60;91.30;;;;;;4924127;28;91515;-85
2020/12/27 19:21:32;;;;;;;9.93;6.25;;;1.60;91.50;;;;;;4929818;28;92200;-83
2020/12/27 19:23:57;;;;;;;9.23;6.60;;;1.60;91.40;;;;;;4916437;28;96608;-86
2020/12/27 19:26:26;;;;;;;10.73;7.28;;;1.70;90.90;;;;;;4926677;28;92940;-86
2020/12/27 19:28:53;;;;;;;9.68;6.13;;;1.70;91.10;;;;;;4921625;28;92040;-85
2020/12/27 19:31:20;;;;;;;10.13;7.53;;;1.80;90.80;;;;;;4912413;28;92567;-86
2020/12/27 19:33:48;;;;;;;9.88;5.82;;;1.80;91.30;;;;;;4925159;28;92437;-85
2020/12/27 19:36:14;;;;;;;8.95;5.72;;;1.80;91.30;;;;;;4922953;28;92139;-85
2020/12/27 19:38:42;;;;;;;8.30;5.45;;;1.70;91.40;;;;;;4924422;28;91779;-82
2020/12/27 19:41:09;;;;;;;9.10;5.95;;;1.80;91.50;;;;;;4930398;28;91962;-84
2020/12/27 19:43:36;;;;;;;8.82;6.63;;;;;;;;;;4921548;28;92764;-83
2020/12/27 19:46:02;;;;;;;10.25;7.40;;;;;;;;;;4906694;28;92523;-87
2020/12/27 19:48:28;;;;;;;11.25;6.88;;;;;;;;;;4924963;28;92669;-86
2020/12/27 19:50:54;;;;;;;8.68;6.20;;;;;;;;;;4931882;28;91941;-87
2020/12/27 19:53:21;;;;;;;10.60;6.40;;;1.80;91.10;;;;;;4920190;28;92399;-87
2020/12/27 19:55:47;;;;;;;9.63;6.20;;;1.80;91.50;;;;;;4924283;28;92143;-86
2020/12/27 19:58:13;;;;;;;8.30;5.43;;;1.80;91.50;;;;;;4934341;28;91959;-87
2020/12/27 20:00:41;;;;;;;8.50;6.88;;;2.00;91.40;;;;;;4926253;28;92096;-86
2020/12/27 20:03:06;;;;;;;7.20;5.80;;;1.80;91.40;;;;;;4918971;28;92731;-86
2020/12/27 20:05:33;;;;;;;7.55;5.28;;;1.90;91.60;;;;;;4914669;28;92705;-85
2020/12/27 20:07:59;;;;;;;8.48;4.90;;;1.90;91.70;;;;;;4912782;28;91863;-86
2020/12/27 20:10:24;;;;;;;9.73;5.18;;;1.90;91.60;;;;;;4924111;28;91951;-86
2020/12/27 20:12:50;;;;;;;10.05;5.40;;;2.00;91.60;;;;;;4924956;28;93357;-87
2020/12/27 20:15:17;;;;;;;10.57;6.15;;;1.60;91.10;;;;;;4930569;28;92920;-86
2020/12/27 20:17:43;;;;;;;9.07;7.05;;;;;;;;;;4925670;28;92238;-87
2020/12/27 20:20:10;;;;;;;9.95;6.25;;;2.10;90.40;;;;;;4925624;28;92125;-86
2020/12/27 20:22:36;;;;;;;6.95;5.20;;;;;;;;;;4920685;28;95876;-86
2020/12/27 20:25:02;;;;;;;8.95;5.65;;;;;;;;;;4926197;28;92213;-86
2020/12/27 20:27:29;;;;;;;8.10;5.97;;;;;;;;;;4921378;28;91985;-86
2020/12/27 20:29:55;;;;;;;9.02;6.05;;;2.30;91.30;;;;;;4926641;28;90885;-86
2020/12/27 20:32:21;;;;;;;7.85;6.35;;;2.40;91.90;;;;;;4922040;28;92500;-86
2020/12/27 20:34:46;;;;;;;9.68;7.15;;;2.10;92.30;;;;;;4923514;28;92117;-86
2020/12/27 20:37:12;;;;;;;9.02;5.63;;;2.00;91.90;;;;;;4925308;28;93077;-87
2020/12/27 20:39:38;;;;;;;8.38;5.38;;;2.00;92.30;;;;;;4914325;28;92063;-86
2020/12/27 20:42:04;;;;;;;8.43;7.28;;;;;;;;;;4923936;28;92136;-86
2020/12/27 20:44:30;;;;;;;6.63;3.78;;;2.00;92.50;;;;;;4937146;28;92002;-83
2020/12/27 20:46:57;;;;;;;14.68;7.47;;;1.90;94.00;;;;;;4956005;28;91361;-85
2020/12/27 20:49:23;;;;;;;10.75;5.60;;;1.70;95.00;;;;;;4951551;28;92399;-85
2020/12/27 20:51:50;;;;;;;8.20;4.60;;;1.70;95.00;;;;;;4912785;28;95601;-84
2020/12/27 20:54:16;;;;;;;9.50;4.95;;;1.60;93.90;;;;;;4927886;28;93582;-83
2020/12/27 20:56:43;;;;;;;8.00;4.88;;;1.60;93.30;;;;;;4944994;28;91267;-83
2020/12/27 20:59:09;;;;;;;5.18;4.45;;;;;;;;;;4922060;28;91280;-83
2020/12/27 21:01:35;;;;;;;5.38;4.72;;;;;;;;;;4923489;28;93067;-86
2020/12/27 21:04:02;;;;;;;8.85;5.53;;;;;;;;;;4926746;28;92630;-85
2020/12/27 21:06:28;;;;;;;10.80;7.00;;;;;;;;;;4927308;28;91905;-86
2020/12/27 21:08:53;;;;;;;9.57;6.63;;;1.60;90.70;;;;;;4920631;28;91814;-86
2020/12/27 21:11:20;;;;;;;8.02;5.32;;;;;;;;;;4925605;28;94158;-85
2020/12/27 21:13:46;;;;;;;7.95;6.03;;;;;;;;;;4917056;28;92833;-85
2020/12/27 21:16:13;;;;;;;6.85;4.93;;;1.90;91.10;;;;;;4924636;28;91948;-86
2020/12/27 21:18:39;;;;;;;8.77;5.50;;;;;;;;;;4906820;28;91473;-86
2020/12/27 21:21:05;;;;;;;6.95;4.40;;;2.00;87.60;;;;;;4922631;28;92358;-86
2020/12/27 21:23:31;;;;;;;9.07;5.40;;;2.20;91.10;;;;;;4927673;28;92182;-85
2020/12/27 21:25:56;;;;;;;8.45;5.97;;;2.30;91.60;;;;;;4918273;28;93085;-85
2020/12/27 21:28:22;;;;;;;9.20;6.53;;;2.30;92.50;;;;;;4920146;28;91887;-86
2020/12/27 21:30:48;;;;;;;6.95;5.07;;;2.40;92.30;;;;;;4924686;28;92257;-85
2020/12/27 21:33:16;;;;;;;6.63;5.90;;;;;;;;;;4921324;28;91900;-85
2020/12/27 21:35:41;;;;;;;7.18;4.65;;;2.50;91.10;;;;;;4918265;28;92133;-84
2020/12/27 21:38:07;;;;;;;8.63;5.05;;;2.50;91.80;;;;;;4921190;28;92101;-85
2020/12/27 21:40:33;;;;;;;6.75;5.25;;;3.10;92.10;;;;;;4924913;28;92437;-85